sensor_id;sensor_type;location;lat;lon;timestamp;P1;durP1;ratioP1;P2;durP2;ratioP2
2041;SDS011;1026;51.460;7.252;2024-03-23T00:53:13;7.97;;;3.10;;
2041;SDS011;1026;51.460;7.252;2024-03-23T00:55:43;7.73;;;3.10;;
2041;SDS011;1026;51.460;7.252;2024-03-23T00:58:09;4.53;;;3.07;;
2041;SDS011;1026;51.460;7.252;2024-03-23T01:00:35;2.83;;;2.53;;
2041;SDS011;1026;51.460;7.252;2024-03-23T01:03:01;5.63;;;4.07;;
2041;SDS011;1026;51.460;7.252;2024-03-23T01:05:27;5.57;;;3.60;;
2041;SDS011;1026;51.460;7.252;2024-03-23T01:07:53;5.97;;;2.90;;
2041;SDS011;1026;51.460;7.252;2024-03-23T01:10:19;7.07;;;3.30;;
2041;SDS011;1026;51.460;7.252;2024-03-23T01:12:45;7.73;;;2.60;;
2041;SDS011;1026;51.460;7.252;2024-03-23T01:15:11;9.50;;;5.10;;
2041;SDS011;1026;51.460;7.252;2024-03-23T01:17:37;5.67;;;3.23;;
2041;SDS011;1026;51.460;7.252;2024-03-23T01:20:03;3.87;;;2.67;;
2041;SDS011;1026;51.460;7.252;2024-03-23T01:22:29;4.70;;;2.70;;
2041;SDS011;1026;51.460;7.252;2024-03-23T01:24:55;3.50;;;2.93;;
2041;SDS011;1026;51.460;7.252;2024-03-23T01:27:21;3.33;;;2.33;;
2041;SDS011;1026;51.460;7.252;2024-03-23T01:29:47;6.73;;;3.33;;
2041;SDS011;1026;51.460;7.252;2024-03-23T01:32:13;6.30;;;2.50;;
2041;SDS011;1026;51.460;7.252;2024-03-23T01:34:39;3.13;;;2.73;;
2041;SDS011;1026;51.460;7.252;2024-03-23T01:37:05;4.33;;;2.30;;
2041;SDS011;1026;51.460;7.252;2024-03-23T01:39:30;7.83;;;2.87;;
2041;SDS011;1026;51.460;7.252;2024-03-23T01:41:56;8.00;;;3.13;;
2041;SDS011;1026;51.460;7.252;2024-03-23T01:44:22;10.00;;;2.83;;
2041;SDS011;1026;51.460;7.252;2024-03-23T01:46:48;6.00;;;2.37;;
2041;SDS011;1026;51.460;7.252;2024-03-23T01:49:14;3.33;;;2.53;;
2041;SDS011;1026;51.460;7.252;2024-03-23T01:51:41;4.53;;;3.00;;
2041;SDS011;1026;51.460;7.252;2024-03-23T01:54:08;3.97;;;2.60;;
2041;SDS011;1026;51.460;7.252;2024-03-23T01:56:35;5.87;;;4.63;;
2041;SDS011;1026;51.460;7.252;2024-03-23T01:59:01;5.10;;;2.73;;
2041;SDS011;1026;51.460;7.252;2024-03-23T02:01:28;6.53;;;2.90;;
2041;SDS011;1026;51.460;7.252;2024-03-23T02:03:54;4.90;;;2.57;;
2041;SDS011;1026;51.460;7.252;2024-03-23T02:06:20;3.07;;;2.77;;
2041;SDS011;1026;51.460;7.252;2024-03-23T02:08:46;3.90;;;2.80;;
2041;SDS011;1026;51.460;7.252;2024-03-23T02:11:13;3.27;;;1.90;;
2041;SDS011;1026;51.460;7.252;2024-03-23T02:13:39;8.13;;;3.17;;
2041;SDS011;1026;51.460;7.252;2024-03-23T02:16:05;4.63;;;2.20;;
2041;SDS011;1026;51.460;7.252;2024-03-23T02:18:32;4.53;;;1.70;;
2041;SDS011;1026;51.460;7.252;2024-03-23T02:20:58;4.47;;;2.03;;
2041;SDS011;1026;51.460;7.252;2024-03-23T02:23:24;3.97;;;2.50;;
2041;SDS011;1026;51.460;7.252;2024-03-23T02:25:50;7.17;;;2.70;;
2041;SDS011;1026;51.460;7.252;2024-03-23T02:28:16;3.93;;;1.83;;
2041;SDS011;1026;51.460;7.252;2024-03-23T02:30:42;4.90;;;2.13;;
2041;SDS011;1026;51.460;7.252;2024-03-23T02:33:18;3.27;;;2.43;;
2041;SDS011;1026;51.460;7.252;2024-03-23T02:35:45;3.70;;;2.00;;
2041;SDS011;1026;51.460;7.252;2024-03-23T02:38:12;6.63;;;2.77;;
2041;SDS011;1026;51.460;7.252;2024-03-23T02:40:38;2.80;;;2.27;;
2041;SDS011;1026;51.460;7.252;2024-03-23T02:43:04;4.43;;;2.00;;
2041;SDS011;1026;51.460;7.252;2024-03-23T02:45:30;5.40;;;2.47;;
2041;SDS011;1026;51.460;7.252;2024-03-23T02:47:56;3.30;;;2.50;;
2041;SDS011;1026;51.460;7.252;2024-03-23T02:50:22;7.23;;;2.60;;
2041;SDS011;1026;51.460;7.252;2024-03-23T02:52:48;3.63;;;2.03;;
2041;SDS011;1026;51.460;7.252;2024-03-23T02:55:14;4.47;;;2.47;;
2041;SDS011;1026;51.460;7.252;2024-03-23T02:57:40;2.10;;;1.90;;
2041;SDS011;1026;51.460;7.252;2024-03-23T03:00:07;6.10;;;3.23;;
2041;SDS011;1026;51.460;7.252;2024-03-23T03:02:34;3.80;;;2.10;;
2041;SDS011;1026;51.460;7.252;2024-03-23T03:05:01;4.30;;;2.13;;
2041;SDS011;1026;51.460;7.252;2024-03-23T03:07:27;3.80;;;2.80;;
2041;SDS011;1026;51.460;7.252;2024-03-23T03:09:53;3.37;;;2.23;;
2041;SDS011;1026;51.460;7.252;2024-03-23T03:12:19;9.10;;;2.13;;
2041;SDS011;1026;51.460;7.252;2024-03-23T03:14:45;3.50;;;1.90;;
2041;SDS011;1026;51.460;7.252;2024-03-23T03:17:11;4.93;;;2.73;;
2041;SDS011;1026;51.460;7.252;2024-03-23T03:19:37;4.57;;;2.20;;
2041;SDS011;1026;51.460;7.252;2024-03-23T03:22:03;4.57;;;1.80;;
2041;SDS011;1026;51.460;7.252;2024-03-23T03:24:29;3.93;;;2.10;;
2041;SDS011;1026;51.460;7.252;2024-03-23T03:26:55;2.93;;;2.10;;
2041;SDS011;1026;51.460;7.252;2024-03-23T03:29:22;4.33;;;2.10;;
2041;SDS011;1026;51.460;7.252;2024-03-23T03:31:48;3.80;;;1.67;;
2041;SDS011;1026;51.460;7.252;2024-03-23T03:34:15;2.60;;;1.57;;
2041;SDS011;1026;51.460;7.252;2024-03-23T03:36:41;9.17;;;2.13;;
2041;SDS011;1026;51.460;7.252;2024-03-23T03:39:07;2.27;;;1.50;;
2041;SDS011;1026;51.460;7.252;2024-03-23T03:41:33;3.03;;;1.40;;
2041;SDS011;1026;51.460;7.252;2024-03-23T03:43:59;3.60;;;2.10;;
2041;SDS011;1026;51.460;7.252;2024-03-23T03:46:27;2.40;;;1.87;;
2041;SDS011;1026;51.460;7.252;2024-03-23T03:48:56;1.83;;;1.50;;
2041;SDS011;1026;51.460;7.252;2024-03-23T03:51:22;2.60;;;1.57;;
2041;SDS011;1026;51.460;7.252;2024-03-23T03:53:48;2.73;;;1.77;;
2041;SDS011;1026;51.460;7.252;2024-03-23T03:56:14;4.30;;;1.87;;
2041;SDS011;1026;51.460;7.252;2024-03-23T03:58:40;4.30;;;1.90;;
2041;SDS011;1026;51.460;7.252;2024-03-23T04:01:06;4.63;;;4.20;;
2041;SDS011;1026;51.460;7.252;2024-03-23T04:03:32;2.40;;;1.50;;
2041;SDS011;1026;51.460;7.252;2024-03-23T04:05:58;1.90;;;1.27;;
2041;SDS011;1026;51.460;7.252;2024-03-23T04:08:24;3.00;;;2.00;;
2041;SDS011;1026;51.460;7.252;2024-03-23T04:10:49;4.90;;;2.03;;
2041;SDS011;1026;51.460;7.252;2024-03-23T04:13:15;2.43;;;1.40;;
2041;SDS011;1026;51.460;7.252;2024-03-23T04:15:41;3.40;;;2.13;;
2041;SDS011;1026;51.460;7.252;2024-03-23T04:18:08;4.30;;;1.77;;
2041;SDS011;1026;51.460;7.252;2024-03-23T04:20:34;3.47;;;2.13;;
2041;SDS011;1026;51.460;7.252;2024-03-23T04:23:00;4.83;;;1.90;;
2041;SDS011;1026;51.460;7.252;2024-03-23T04:25:26;3.07;;;1.60;;
2041;SDS011;1026;51.460;7.252;2024-03-23T04:27:52;3.27;;;1.70;;
2041;SDS011;1026;51.460;7.252;2024-03-23T04:30:18;4.17;;;1.80;;
2041;SDS011;1026;51.460;7.252;2024-03-23T04:32:44;4.77;;;1.50;;
2041;SDS011;1026;51.460;7.252;2024-03-23T04:35:10;2.93;;;1.40;;
2041;SDS011;1026;51.460;7.252;2024-03-23T04:37:37;2.40;;;1.33;;
2041;SDS011;1026;51.460;7.252;2024-03-23T04:40:03;5.23;;;2.90;;
2041;SDS011;1026;51.460;7.252;2024-03-23T04:42:31;3.90;;;1.43;;
2041;SDS011;1026;51.460;7.252;2024-03-23T04:44:57;1.90;;;1.50;;
2041;SDS011;1026;51.460;7.252;2024-03-23T04:47:23;3.53;;;2.40;;
2041;SDS011;1026;51.460;7.252;2024-03-23T04:49:49;3.17;;;1.87;;
2041;SDS011;1026;51.460;7.252;2024-03-23T04:52:15;4.37;;;2.30;;
2041;SDS011;1026;51.460;7.252;2024-03-23T04:54:42;6.50;;;2.73;;
2041;SDS011;1026;51.460;7.252;2024-03-23T04:57:09;4.93;;;2.13;;
2041;SDS011;1026;51.460;7.252;2024-03-23T04:59:35;2.57;;;1.70;;
2041;SDS011;1026;51.460;7.252;2024-03-23T05:02:01;5.00;;;1.97;;
2041;SDS011;1026;51.460;7.252;2024-03-23T05:04:28;5.90;;;2.73;;
2041;SDS011;1026;51.460;7.252;2024-03-23T05:06:54;3.17;;;2.13;;
2041;SDS011;1026;51.460;7.252;2024-03-23T05:09:20;3.13;;;2.07;;
2041;SDS011;1026;51.460;7.252;2024-03-23T05:11:46;2.30;;;1.73;;
2041;SDS011;1026;51.460;7.252;2024-03-23T05:14:15;4.10;;;1.73;;
2041;SDS011;1026;51.460;7.252;2024-03-23T05:16:41;4.30;;;1.90;;
2041;SDS011;1026;51.460;7.252;2024-03-23T05:19:07;5.20;;;2.10;;
2041;SDS011;1026;51.460;7.252;2024-03-23T05:21:33;3.97;;;1.80;;
2041;SDS011;1026;51.460;7.252;2024-03-23T05:23:59;2.83;;;1.53;;
2041;SDS011;1026;51.460;7.252;2024-03-23T05:26:25;4.93;;;1.90;;
2041;SDS011;1026;51.460;7.252;2024-03-23T05:28:51;4.67;;;2.03;;
2041;SDS011;1026;51.460;7.252;2024-03-23T05:31:30;4.53;;;2.07;;
2041;SDS011;1026;51.460;7.252;2024-03-23T05:34:08;4.77;;;2.53;;
2041;SDS011;1026;51.460;7.252;2024-03-23T05:36:34;6.27;;;1.93;;
2041;SDS011;1026;51.460;7.252;2024-03-23T05:39:01;4.10;;;3.10;;
2041;SDS011;1026;51.460;7.252;2024-03-23T05:41:27;2.97;;;2.10;;
2041;SDS011;1026;51.460;7.252;2024-03-23T05:43:56;5.07;;;2.70;;
2041;SDS011;1026;51.460;7.252;2024-03-23T05:46:22;4.37;;;2.20;;
2041;SDS011;1026;51.460;7.252;2024-03-23T05:48:48;3.20;;;2.17;;
2041;SDS011;1026;51.460;7.252;2024-03-23T05:51:15;7.57;;;3.10;;
2041;SDS011;1026;51.460;7.252;2024-03-23T05:53:42;6.33;;;3.23;;
2041;SDS011;1026;51.460;7.252;2024-03-23T05:56:07;5.70;;;3.03;;
2041;SDS011;1026;51.460;7.252;2024-03-23T05:58:34;2.70;;;2.03;;
2041;SDS011;1026;51.460;7.252;2024-03-23T06:01:01;3.53;;;2.10;;
2041;SDS011;1026;51.460;7.252;2024-03-23T06:03:30;4.13;;;3.20;;
2041;SDS011;1026;51.460;7.252;2024-03-23T06:05:56;4.73;;;2.83;;
2041;SDS011;1026;51.460;7.252;2024-03-23T06:08:22;3.97;;;2.70;;
2041;SDS011;1026;51.460;7.252;2024-03-23T06:10:49;4.37;;;2.70;;
2041;SDS011;1026;51.460;7.252;2024-03-23T06:13:15;6.00;;;3.23;;
2041;SDS011;1026;51.460;7.252;2024-03-23T06:15:42;3.70;;;3.37;;
2041;SDS011;1026;51.460;7.252;2024-03-23T06:18:08;6.50;;;3.73;;
2041;SDS011;1026;51.460;7.252;2024-03-23T06:20:34;3.07;;;2.77;;
2041;SDS011;1026;51.460;7.252;2024-03-23T06:23:00;4.73;;;3.43;;
2041;SDS011;1026;51.460;7.252;2024-03-23T06:25:28;8.13;;;3.80;;
2041;SDS011;1026;51.460;7.252;2024-03-23T06:27:54;5.13;;;2.87;;
2041;SDS011;1026;51.460;7.252;2024-03-23T06:30:20;7.80;;;3.77;;
2041;SDS011;1026;51.460;7.252;2024-03-23T06:32:46;4.80;;;3.67;;
2041;SDS011;1026;51.460;7.252;2024-03-23T06:35:12;7.77;;;2.63;;
2041;SDS011;1026;51.460;7.252;2024-03-23T06:37:38;4.13;;;3.73;;
2041;SDS011;1026;51.460;7.252;2024-03-23T06:40:09;6.30;;;4.10;;
2041;SDS011;1026;51.460;7.252;2024-03-23T06:42:44;9.13;;;4.57;;
2041;SDS011;1026;51.460;7.252;2024-03-23T06:45:10;5.27;;;4.10;;
2041;SDS011;1026;51.460;7.252;2024-03-23T06:47:36;7.60;;;5.20;;
2041;SDS011;1026;51.460;7.252;2024-03-23T06:50:03;9.47;;;5.03;;
2041;SDS011;1026;51.460;7.252;2024-03-23T06:52:29;6.10;;;4.87;;
2041;SDS011;1026;51.460;7.252;2024-03-23T06:54:56;5.30;;;4.43;;
2041;SDS011;1026;51.460;7.252;2024-03-23T06:57:23;8.83;;;5.40;;
2041;SDS011;1026;51.460;7.252;2024-03-23T06:59:48;9.53;;;6.63;;
2041;SDS011;1026;51.460;7.252;2024-03-23T07:02:15;4.83;;;4.07;;
2041;SDS011;1026;51.460;7.252;2024-03-23T07:04:41;5.90;;;5.17;;
2041;SDS011;1026;51.460;7.252;2024-03-23T07:07:07;7.03;;;6.13;;
2041;SDS011;1026;51.460;7.252;2024-03-23T07:09:33;9.30;;;8.37;;
2041;SDS011;1026;51.460;7.252;2024-03-23T07:11:59;10.20;;;7.37;;
2041;SDS011;1026;51.460;7.252;2024-03-23T07:14:26;11.27;;;7.20;;
2041;SDS011;1026;51.460;7.252;2024-03-23T07:16:51;12.40;;;8.67;;
2041;SDS011;1026;51.460;7.252;2024-03-23T07:19:17;5.83;;;5.33;;
2041;SDS011;1026;51.460;7.252;2024-03-23T07:21:44;6.97;;;4.57;;
2041;SDS011;1026;51.460;7.252;2024-03-23T07:24:10;16.20;;;8.77;;
2041;SDS011;1026;51.460;7.252;2024-03-23T07:26:36;9.50;;;7.60;;
2041;SDS011;1026;51.460;7.252;2024-03-23T07:29:03;11.00;;;6.63;;
2041;SDS011;1026;51.460;7.252;2024-03-23T07:31:32;9.80;;;8.03;;
2041;SDS011;1026;51.460;7.252;2024-03-23T07:33:58;11.43;;;8.67;;
2041;SDS011;1026;51.460;7.252;2024-03-23T07:36:24;9.53;;;7.70;;
2041;SDS011;1026;51.460;7.252;2024-03-23T07:38:51;10.60;;;8.97;;
2041;SDS011;1026;51.460;7.252;2024-03-23T07:41:17;6.30;;;5.63;;
2041;SDS011;1026;51.460;7.252;2024-03-23T07:43:44;13.30;;;7.93;;
2041;SDS011;1026;51.460;7.252;2024-03-23T07:46:11;11.83;;;7.27;;
2041;SDS011;1026;51.460;7.252;2024-03-23T07:48:37;9.93;;;7.03;;
2041;SDS011;1026;51.460;7.252;2024-03-23T07:51:04;8.57;;;6.33;;
2041;SDS011;1026;51.460;7.252;2024-03-23T07:53:31;9.87;;;8.20;;
2041;SDS011;1026;51.460;7.252;2024-03-23T07:55:59;8.47;;;5.93;;
2041;SDS011;1026;51.460;7.252;2024-03-23T07:58:26;8.97;;;7.70;;
2041;SDS011;1026;51.460;7.252;2024-03-23T08:00:53;12.83;;;9.37;;
2041;SDS011;1026;51.460;7.252;2024-03-23T08:03:20;14.40;;;9.00;;
2041;SDS011;1026;51.460;7.252;2024-03-23T08:05:46;14.70;;;8.47;;
2041;SDS011;1026;51.460;7.252;2024-03-23T08:08:12;9.50;;;6.40;;
2041;SDS011;1026;51.460;7.252;2024-03-23T08:10:50;7.50;;;6.20;;
2041;SDS011;1026;51.460;7.252;2024-03-23T08:13:17;10.83;;;7.37;;
2041;SDS011;1026;51.460;7.252;2024-03-23T08:15:43;9.80;;;6.97;;
2041;SDS011;1026;51.460;7.252;2024-03-23T08:18:10;8.17;;;6.40;;
2041;SDS011;1026;51.460;7.252;2024-03-23T08:20:37;11.10;;;8.23;;
2041;SDS011;1026;51.460;7.252;2024-03-23T08:23:09;11.50;;;7.33;;
2041;SDS011;1026;51.460;7.252;2024-03-23T08:25:35;9.37;;;6.07;;
2041;SDS011;1026;51.460;7.252;2024-03-23T08:28:01;8.20;;;5.70;;
2041;SDS011;1026;51.460;7.252;2024-03-23T08:30:27;14.40;;;6.17;;
2041;SDS011;1026;51.460;7.252;2024-03-23T08:32:54;7.30;;;6.37;;
2041;SDS011;1026;51.460;7.252;2024-03-23T08:35:20;19.17;;;7.83;;
2041;SDS011;1026;51.460;7.252;2024-03-23T08:37:46;12.73;;;8.13;;
2041;SDS011;1026;51.460;7.252;2024-03-23T08:40:12;6.70;;;5.90;;
2041;SDS011;1026;51.460;7.252;2024-03-23T08:42:38;10.23;;;7.03;;
2041;SDS011;1026;51.460;7.252;2024-03-23T08:45:04;11.13;;;6.77;;
2041;SDS011;1026;51.460;7.252;2024-03-23T08:47:34;8.90;;;5.83;;
2041;SDS011;1026;51.460;7.252;2024-03-23T08:50:01;9.07;;;5.83;;
2041;SDS011;1026;51.460;7.252;2024-03-23T08:52:27;8.90;;;5.37;;
2041;SDS011;1026;51.460;7.252;2024-03-23T08:54:55;8.90;;;5.43;;
2041;SDS011;1026;51.460;7.252;2024-03-23T08:57:22;7.13;;;4.57;;
2041;SDS011;1026;51.460;7.252;2024-03-23T08:59:48;11.13;;;5.00;;
2041;SDS011;1026;51.460;7.252;2024-03-23T09:02:27;7.10;;;5.10;;
2041;SDS011;1026;51.460;7.252;2024-03-23T09:04:53;10.13;;;4.70;;
2041;SDS011;1026;51.460;7.252;2024-03-23T09:07:18;10.47;;;5.20;;
2041;SDS011;1026;51.460;7.252;2024-03-23T09:09:44;7.97;;;4.63;;
2041;SDS011;1026;51.460;7.252;2024-03-23T09:12:10;7.23;;;4.30;;
2041;SDS011;1026;51.460;7.252;2024-03-23T09:14:36;6.30;;;4.17;;
2041;SDS011;1026;51.460;7.252;2024-03-23T09:17:02;7.40;;;4.13;;
2041;SDS011;1026;51.460;7.252;2024-03-23T09:19:28;3.70;;;3.40;;
2041;SDS011;1026;51.460;7.252;2024-03-23T09:21:55;13.77;;;4.50;;
2041;SDS011;1026;51.460;7.252;2024-03-23T09:24:21;10.77;;;3.43;;
2041;SDS011;1026;51.460;7.252;2024-03-23T09:26:47;5.43;;;3.70;;
2041;SDS011;1026;51.460;7.252;2024-03-23T09:29:13;7.53;;;3.77;;
2041;SDS011;1026;51.460;7.252;2024-03-23T09:31:39;3.77;;;3.03;;
2041;SDS011;1026;51.460;7.252;2024-03-23T09:34:06;3.47;;;3.17;;
2041;SDS011;1026;51.460;7.252;2024-03-23T09:36:32;5.20;;;3.40;;
2041;SDS011;1026;51.460;7.252;2024-03-23T09:38:58;2.80;;;2.60;;
2041;SDS011;1026;51.460;7.252;2024-03-23T09:41:24;4.10;;;3.70;;
2041;SDS011;1026;51.460;7.252;2024-03-23T09:43:52;6.80;;;3.40;;
2041;SDS011;1026;51.460;7.252;2024-03-23T09:46:19;4.80;;;2.60;;
2041;SDS011;1026;51.460;7.252;2024-03-23T09:48:46;2.80;;;2.50;;
2041;SDS011;1026;51.460;7.252;2024-03-23T09:51:12;3.60;;;2.50;;
2041;SDS011;1026;51.460;7.252;2024-03-23T09:53:38;8.03;;;3.20;;
2041;SDS011;1026;51.460;7.252;2024-03-23T09:56:04;12.27;;;3.77;;
2041;SDS011;1026;51.460;7.252;2024-03-23T09:58:30;6.47;;;3.30;;
2041;SDS011;1026;51.460;7.252;2024-03-23T10:00:57;5.93;;;3.20;;
2041;SDS011;1026;51.460;7.252;2024-03-23T10:03:23;8.87;;;4.07;;
2041;SDS011;1026;51.460;7.252;2024-03-23T10:06:00;5.37;;;4.37;;
2041;SDS011;1026;51.460;7.252;2024-03-23T10:08:27;7.27;;;4.00;;
2041;SDS011;1026;51.460;7.252;2024-03-23T10:10:55;6.47;;;3.67;;
2041;SDS011;1026;51.460;7.252;2024-03-23T10:13:27;7.70;;;5.13;;
2041;SDS011;1026;51.460;7.252;2024-03-23T10:15:57;7.47;;;4.40;;
2041;SDS011;1026;51.460;7.252;2024-03-23T10:18:24;4.20;;;3.20;;
2041;SDS011;1026;51.460;7.252;2024-03-23T10:21:09;4.80;;;3.43;;
2041;SDS011;1026;51.460;7.252;2024-03-23T10:23:37;6.17;;;4.97;;
2041;SDS011;1026;51.460;7.252;2024-03-23T10:26:14;4.83;;;3.13;;
2041;SDS011;1026;51.460;7.252;2024-03-23T10:28:54;3.73;;;3.10;;
2041;SDS011;1026;51.460;7.252;2024-03-23T10:31:26;5.93;;;3.37;;
2041;SDS011;1026;51.460;7.252;2024-03-23T10:33:56;7.97;;;4.33;;
2041;SDS011;1026;51.460;7.252;2024-03-23T10:36:23;13.23;;;3.57;;
2041;SDS011;1026;51.460;7.252;2024-03-23T10:38:51;8.03;;;2.90;;
2041;SDS011;1026;51.460;7.252;2024-03-23T10:41:18;2.80;;;2.03;;
2041;SDS011;1026;51.460;7.252;2024-03-23T10:43:48;4.20;;;1.80;;
2041;SDS011;1026;51.460;7.252;2024-03-23T10:46:14;3.00;;;2.07;;
2041;SDS011;1026;51.460;7.252;2024-03-23T10:48:41;4.90;;;2.20;;
2041;SDS011;1026;51.460;7.252;2024-03-23T10:51:08;8.80;;;2.20;;
2041;SDS011;1026;51.460;7.252;2024-03-23T10:53:35;6.37;;;2.30;;
2041;SDS011;1026;51.460;7.252;2024-03-23T10:56:05;3.07;;;2.40;;
2041;SDS011;1026;51.460;7.252;2024-03-23T10:58:34;2.20;;;1.97;;
2041;SDS011;1026;51.460;7.252;2024-03-23T11:01:11;5.37;;;2.47;;
2041;SDS011;1026;51.460;7.252;2024-03-23T11:03:47;3.30;;;2.30;;
2041;SDS011;1026;51.460;7.252;2024-03-23T11:06:33;3.93;;;1.90;;
2041;SDS011;1026;51.460;7.252;2024-03-23T11:09:00;2.40;;;1.43;;
2041;SDS011;1026;51.460;7.252;2024-03-23T11:11:26;4.67;;;1.90;;
2041;SDS011;1026;51.460;7.252;2024-03-23T11:13:53;1.92;;;1.40;;
2041;SDS011;1026;51.460;7.252;2024-03-23T11:16:23;4.65;;;1.50;;
2041;SDS011;1026;51.460;7.252;2024-03-23T11:18:53;5.23;;;1.63;;
2041;SDS011;1026;51.460;7.252;2024-03-23T11:24:19;1.47;;;1.20;;
2041;SDS011;1026;51.460;7.252;2024-03-23T11:26:46;2.43;;;1.57;;
2041;SDS011;1026;51.460;7.252;2024-03-23T11:29:15;2.90;;;1.37;;
2041;SDS011;1026;51.460;7.252;2024-03-23T11:31:49;3.17;;;2.03;;
2041;SDS011;1026;51.460;7.252;2024-03-23T11:34:17;2.07;;;1.13;;
2041;SDS011;1026;51.460;7.252;2024-03-23T11:36:46;4.40;;;1.37;;
2041;SDS011;1026;51.460;7.252;2024-03-23T11:39:13;2.03;;;1.23;;
2041;SDS011;1026;51.460;7.252;2024-03-23T11:41:46;2.37;;;1.17;;
2041;SDS011;1026;51.460;7.252;2024-03-23T11:44:23;2.47;;;1.80;;
2041;SDS011;1026;51.460;7.252;2024-03-23T11:46:52;4.50;;;1.17;;
2041;SDS011;1026;51.460;7.252;2024-03-23T11:52:06;2.00;;;1.50;;
2041;SDS011;1026;51.460;7.252;2024-03-23T11:54:33;2.37;;;2.17;;
2041;SDS011;1026;51.460;7.252;2024-03-23T11:57:02;4.37;;;1.23;;
2041;SDS011;1026;51.460;7.252;2024-03-23T11:59:33;3.80;;;1.60;;
2041;SDS011;1026;51.460;7.252;2024-03-23T12:02:00;2.93;;;2.10;;
2041;SDS011;1026;51.460;7.252;2024-03-23T12:04:30;5.27;;;2.10;;
2041;SDS011;1026;51.460;7.252;2024-03-23T12:07:13;6.40;;;2.60;;
2041;SDS011;1026;51.460;7.252;2024-03-23T12:09:44;4.70;;;1.80;;
2041;SDS011;1026;51.460;7.252;2024-03-23T12:12:14;6.13;;;1.90;;
2041;SDS011;1026;51.460;7.252;2024-03-23T12:14:42;4.30;;;2.90;;
2041;SDS011;1026;51.460;7.252;2024-03-23T12:17:26;7.23;;;1.77;;
2041;SDS011;1026;51.460;7.252;2024-03-23T12:19:52;1.37;;;1.27;;
2041;SDS011;1026;51.460;7.252;2024-03-23T12:22:21;2.47;;;2.00;;
2041;SDS011;1026;51.460;7.252;2024-03-23T12:24:48;2.03;;;1.10;;
2041;SDS011;1026;51.460;7.252;2024-03-23T12:27:14;1.80;;;1.10;;
2041;SDS011;1026;51.460;7.252;2024-03-23T12:29:40;2.60;;;2.00;;
2041;SDS011;1026;51.460;7.252;2024-03-23T12:32:07;3.10;;;1.60;;
2041;SDS011;1026;51.460;7.252;2024-03-23T12:34:33;2.50;;;1.30;;
2041;SDS011;1026;51.460;7.252;2024-03-23T12:36:59;2.60;;;1.77;;
2041;SDS011;1026;51.460;7.252;2024-03-23T12:39:25;3.07;;;1.27;;
2041;SDS011;1026;51.460;7.252;2024-03-23T12:41:51;3.87;;;1.20;;
2041;SDS011;1026;51.460;7.252;2024-03-23T12:44:37;0.97;;;0.97;;
2041;SDS011;1026;51.460;7.252;2024-03-23T12:47:02;1.73;;;1.20;;
2041;SDS011;1026;51.460;7.252;2024-03-23T12:49:29;2.60;;;1.23;;
2041;SDS011;1026;51.460;7.252;2024-03-23T12:52:10;3.50;;;1.20;;
2041;SDS011;1026;51.460;7.252;2024-03-23T12:54:38;1.10;;;0.80;;
2041;SDS011;1026;51.460;7.252;2024-03-23T12:57:04;4.03;;;1.40;;
2041;SDS011;1026;51.460;7.252;2024-03-23T12:59:30;4.33;;;1.43;;
2041;SDS011;1026;51.460;7.252;2024-03-23T13:01:55;3.63;;;1.60;;
2041;SDS011;1026;51.460;7.252;2024-03-23T13:04:21;3.67;;;1.70;;
2041;SDS011;1026;51.460;7.252;2024-03-23T13:06:47;2.53;;;1.70;;
2041;SDS011;1026;51.460;7.252;2024-03-23T13:09:13;2.10;;;1.33;;
2041;SDS011;1026;51.460;7.252;2024-03-23T13:11:39;2.10;;;1.40;;
2041;SDS011;1026;51.460;7.252;2024-03-23T13:14:05;4.30;;;2.00;;
2041;SDS011;1026;51.460;7.252;2024-03-23T13:16:31;5.43;;;1.57;;
2041;SDS011;1026;51.460;7.252;2024-03-23T13:18:57;4.30;;;1.37;;
2041;SDS011;1026;51.460;7.252;2024-03-23T13:21:23;1.60;;;1.50;;
2041;SDS011;1026;51.460;7.252;2024-03-23T13:23:49;2.10;;;1.23;;
2041;SDS011;1026;51.460;7.252;2024-03-23T13:26:16;2.87;;;1.50;;
2041;SDS011;1026;51.460;7.252;2024-03-23T13:28:42;1.77;;;1.43;;
2041;SDS011;1026;51.460;7.252;2024-03-23T13:31:08;3.10;;;1.43;;
2041;SDS011;1026;51.460;7.252;2024-03-23T13:33:34;2.73;;;1.43;;
2041;SDS011;1026;51.460;7.252;2024-03-23T13:36:00;1.77;;;1.20;;
2041;SDS011;1026;51.460;7.252;2024-03-23T13:38:26;3.50;;;1.40;;
2041;SDS011;1026;51.460;7.252;2024-03-23T13:40:55;1.83;;;1.10;;
2041;SDS011;1026;51.460;7.252;2024-03-23T13:43:22;2.07;;;1.50;;
2041;SDS011;1026;51.460;7.252;2024-03-23T13:45:56;2.30;;;1.20;;
2041;SDS011;1026;51.460;7.252;2024-03-23T13:48:23;1.13;;;0.80;;
2041;SDS011;1026;51.460;7.252;2024-03-23T13:51:02;0.80;;;0.80;;
2041;SDS011;1026;51.460;7.252;2024-03-23T13:53:29;3.90;;;1.10;;
2041;SDS011;1026;51.460;7.252;2024-03-23T13:55:55;1.17;;;0.77;;
2041;SDS011;1026;51.460;7.252;2024-03-23T13:58:21;1.20;;;1.03;;
2041;SDS011;1026;51.460;7.252;2024-03-23T14:00:49;3.67;;;1.53;;
2041;SDS011;1026;51.460;7.252;2024-03-23T14:03:14;1.80;;;1.50;;
2041;SDS011;1026;51.460;7.252;2024-03-23T14:05:40;1.90;;;1.33;;
2041;SDS011;1026;51.460;7.252;2024-03-23T14:08:07;2.20;;;1.50;;
2041;SDS011;1026;51.460;7.252;2024-03-23T14:10:33;3.50;;;1.80;;
2041;SDS011;1026;51.460;7.252;2024-03-23T14:13:01;3.60;;;1.83;;
2041;SDS011;1026;51.460;7.252;2024-03-23T14:15:30;1.93;;;1.20;;
2041;SDS011;1026;51.460;7.252;2024-03-23T14:17:56;4.30;;;1.50;;
2041;SDS011;1026;51.460;7.252;2024-03-23T14:20:22;2.90;;;1.20;;
2041;SDS011;1026;51.460;7.252;2024-03-23T14:22:49;2.57;;;1.20;;
2041;SDS011;1026;51.460;7.252;2024-03-23T14:25:15;3.20;;;1.40;;
2041;SDS011;1026;51.460;7.252;2024-03-23T14:27:45;2.87;;;1.30;;
2041;SDS011;1026;51.460;7.252;2024-03-23T14:30:11;2.50;;;1.40;;
2041;SDS011;1026;51.460;7.252;2024-03-23T14:32:39;3.50;;;1.37;;
2041;SDS011;1026;51.460;7.252;2024-03-23T14:35:05;2.30;;;1.20;;
2041;SDS011;1026;51.460;7.252;2024-03-23T14:37:38;1.50;;;1.20;;
2041;SDS011;1026;51.460;7.252;2024-03-23T14:40:07;4.30;;;1.03;;
2041;SDS011;1026;51.460;7.252;2024-03-23T14:42:33;2.67;;;1.23;;
2041;SDS011;1026;51.460;7.252;2024-03-23T14:44:59;2.43;;;0.90;;
2041;SDS011;1026;51.460;7.252;2024-03-23T14:47:25;2.80;;;1.67;;
2041;SDS011;1026;51.460;7.252;2024-03-23T14:49:51;4.67;;;0.93;;
2041;SDS011;1026;51.460;7.252;2024-03-23T14:52:17;1.00;;;0.83;;
2041;SDS011;1026;51.460;7.252;2024-03-23T14:54:46;1.50;;;0.90;;
2041;SDS011;1026;51.460;7.252;2024-03-23T14:57:12;2.07;;;0.97;;
2041;SDS011;1026;51.460;7.252;2024-03-23T14:59:38;1.27;;;0.83;;
2041;SDS011;1026;51.460;7.252;2024-03-23T15:02:08;0.80;;;0.70;;
2041;SDS011;1026;51.460;7.252;2024-03-23T15:04:34;4.40;;;1.53;;
2041;SDS011;1026;51.460;7.252;2024-03-23T15:07:01;1.87;;;0.80;;
2041;SDS011;1026;51.460;7.252;2024-03-23T15:09:27;1.47;;;0.90;;
2041;SDS011;1026;51.460;7.252;2024-03-23T15:11:53;1.50;;;0.83;;
2041;SDS011;1026;51.460;7.252;2024-03-23T15:14:23;2.37;;;0.90;;
2041;SDS011;1026;51.460;7.252;2024-03-23T15:16:49;3.03;;;1.13;;
2041;SDS011;1026;51.460;7.252;2024-03-23T15:19:16;2.80;;;1.13;;
2041;SDS011;1026;51.460;7.252;2024-03-23T15:21:42;1.10;;;1.00;;
2041;SDS011;1026;51.460;7.252;2024-03-23T15:24:12;1.20;;;0.73;;
2041;SDS011;1026;51.460;7.252;2024-03-23T15:26:38;4.20;;;0.90;;
2041;SDS011;1026;51.460;7.252;2024-03-23T15:29:04;2.43;;;1.30;;
2041;SDS011;1026;51.460;7.252;2024-03-23T15:31:37;4.00;;;1.53;;
2041;SDS011;1026;51.460;7.252;2024-03-23T15:34:04;3.13;;;1.47;;
2041;SDS011;1026;51.460;7.252;2024-03-23T15:36:30;2.70;;;1.93;;
2041;SDS011;1026;51.460;7.252;2024-03-23T15:38:56;4.90;;;2.10;;
2041;SDS011;1026;51.460;7.252;2024-03-23T15:41:22;1.10;;;0.67;;
2041;SDS011;1026;51.460;7.252;2024-03-23T15:43:49;1.20;;;1.10;;
2041;SDS011;1026;51.460;7.252;2024-03-23T15:46:16;4.83;;;1.60;;
2041;SDS011;1026;51.460;7.252;2024-03-23T15:48:44;1.75;;;1.25;;
2041;SDS011;1026;51.460;7.252;2024-03-23T15:51:12;2.40;;;1.20;;
2041;SDS011;1026;51.460;7.252;2024-03-23T15:53:38;1.10;;;1.00;;
2041;SDS011;1026;51.460;7.252;2024-03-23T15:56:04;2.10;;;1.13;;
2041;SDS011;1026;51.460;7.252;2024-03-23T15:58:31;4.80;;;1.43;;
2041;SDS011;1026;51.460;7.252;2024-03-23T16:00:58;2.40;;;1.30;;
2041;SDS011;1026;51.460;7.252;2024-03-23T16:03:29;2.00;;;1.17;;
2041;SDS011;1026;51.460;7.252;2024-03-23T16:05:56;3.90;;;1.27;;
2041;SDS011;1026;51.460;7.252;2024-03-23T16:08:32;2.73;;;1.27;;
2041;SDS011;1026;51.460;7.252;2024-03-23T16:11:02;1.90;;;1.07;;
2041;SDS011;1026;51.460;7.252;2024-03-23T16:13:29;1.43;;;1.33;;